Time;durP1;ratioP1;P1;durP2;ratioP2;P2;SDS_P1;SDS_P2;PMS_P1;PMS_P2;Temp;Humidity;BMP_temperature;BMP_pressure;BME280_temperature;BME280_humidity;BME280_pressure;Samples;Min_cycle;Max_cycle;Signal;HPM_P1;HPM_P2
2023/04/23 00:00:40;;;;;;;10.32;4.60;;;;;;;12.16;59.67;95205.78;5013396;28;20076;-77
2023/04/23 00:03:11;;;;;;;11.65;3.78;;;;;;;11.37;60.09;95090.94;5012892;28;20041;-77
2023/04/23 00:05:37;;;;;;;;;;;;;;;12.07;60.19;95207.47;5012836;28;20120;-77
2023/04/23 00:08:03;;;;;;;11.85;4.03;;;;;;;11.64;60.11;95148.88;4995419;28;19917;-77
2023/04/23 00:10:28;;;;;;;8.68;4.60;;;;;;;11.99;60.56;95207.00;5012762;28;20532;-77
2023/04/23 00:12:54;;;;;;;7.20;4.40;;;;;;;11.62;60.43;95145.69;4995016;28;20381;-77
2023/04/23 00:15:21;;;;;;;8.73;4.68;;;;;;;11.94;60.41;95206.25;5012376;28;20038;-77
2023/04/23 00:17:47;;;;;;;6.90;4.35;;;;;;;11.84;60.44;95190.41;4994772;28;20044;-77
2023/04/23 00:20:13;;;;;;;11.02;4.50;;;;;;;11.84;60.92;95207.16;5012811;28;20113;-77
2023/04/23 00:22:38;;;;;;;8.27;3.67;;;;;;;11.79;61.14;95209.84;4994624;28;20168;-77
2023/04/23 00:25:04;;;;;;;9.93;4.35;;;;;;;11.39;61.16;95159.72;5012065;28;20041;-77
2023/04/23 00:27:30;;;;;;;18.27;4.75;;;;;;;11.50;61.23;95179.81;5012318;28;20045;-77
2023/04/23 00:29:55;;;;;;;10.15;4.72;;;;;;;11.28;60.90;95135.13;4988728;28;20037;-77
2023/04/23 00:32:21;;;;;;;10.60;4.97;;;;;;;11.50;60.82;95183.25;4992444;28;20084;-77
2023/04/23 00:34:50;;;;;;;10.70;4.72;;;;;;;11.67;61.18;95216.59;4992998;28;20034;-77
2023/04/23 00:37:16;;;;;;;8.82;4.78;;;;;;;11.23;61.50;95167.78;4992242;28;20061;-77
2023/04/23 00:39:42;;;;;;;10.18;4.80;;;;;;;11.62;61.43;95209.44;4975208;28;20500;-77
2023/04/23 00:42:12;;;;;;;11.55;4.97;;;;;;;11.54;61.17;95186.94;5004743;28;20064;-77
2023/04/23 00:44:39;;;;;;;13.57;6.03;;;;;;;11.66;60.95;95207.84;5011715;28;20493;-77
2023/04/23 00:47:06;;;;;;;14.45;5.30;;;;;;;11.44;60.94;95172.97;5012398;28;20477;-77
2023/04/23 00:49:33;;;;;;;10.13;4.68;;;;;;;11.49;60.71;95172.91;4994187;28;20539;-77
2023/04/23 00:51:59;;;;;;;10.32;4.78;;;;;;;11.54;61.11;95183.47;4994028;28;20047;-77
2023/04/23 00:54:25;;;;;;;8.15;4.78;;;;;;;11.50;60.65;95180.59;4992694;28;20031;-77
2023/04/23 00:56:51;;;;;;;12.00;5.85;;;;;;;11.37;60.76;95172.47;4990570;28;20034;-77
2023/04/23 00:59:17;;;;;;;15.27;4.90;;;;;;;11.40;61.09;95196.59;4992253;28;20034;-77
2023/04/23 01:01:44;;;;;;;17.95;5.38;;;;;;;11.29;60.82;95181.81;4991967;28;20034;-77
2023/04/23 01:04:13;;;;;;;8.32;5.50;;;;;;;11.13;61.89;95175.84;4990222;28;20038;-79
2023/04/23 01:06:39;;;;;;;12.32;5.32;;;;;;;11.24;61.09;95181.88;4988653;28;20038;-79
2023/04/23 01:09:07;;;;;;;11.98;5.18;;;;;;;11.42;60.79;95194.47;4999913;28;20036;-78
2023/04/23 01:11:33;;;;;;;12.93;5.22;;;;;;;11.07;60.82;95138.97;4992528;28;20054;-79
2023/04/23 01:14:00;;;;;;;13.20;4.82;;;;;;;11.36;61.07;95184.97;5010327;28;20053;-78
2023/04/23 01:16:25;;;;;;;11.50;4.45;;;;;;;11.23;60.93;95170.44;5000326;28;20042;-78
2023/04/23 01:18:52;;;;;;;11.00;5.15;;;;;;;11.42;61.03;95213.06;4989859;28;20089;-78
2023/04/23 01:21:18;;;;;;;14.43;8.02;;;;;;;11.42;61.14;95210.41;4990424;28;20085;-78
2023/04/23 01:23:45;;;;;;;16.30;6.97;;;;;;;11.44;60.97;95213.56;4972311;28;20129;-78
2023/04/23 01:26:10;;;;;;;16.17;7.20;;;;;;;11.08;60.90;95149.34;4988943;28;20049;-78
2023/04/23 01:28:36;;;;;;;9.75;6.13;;;;;;;11.33;60.77;95179.41;4991707;28;20564;-79
2023/04/23 01:31:02;;;;;;;12.85;6.55;;;;;;;11.45;60.29;95198.41;4991784;28;20128;-79
2023/04/23 01:33:29;;;;;;;14.43;6.85;;;;;;;11.17;60.82;95168.13;4990479;28;20048;-79
2023/04/23 01:35:56;;;;;;;15.68;6.72;;;;;;;11.41;60.91;95213.34;4989168;28;20037;-79
2023/04/23 01:38:22;;;;;;;17.05;6.97;;;;;;;11.37;61.31;95212.28;4988835;28;20030;-79
2023/04/23 01:40:47;;;;;;;11.88;6.28;;;;;;;11.10;61.84;95199.47;4992088;28;20037;-79
2023/04/23 01:43:13;;;;;;;15.88;6.50;;;;;;;10.89;60.99;95150.28;4991929;28;20026;-79
2023/04/23 01:45:40;;;;;;;12.93;6.65;;;;;;;11.18;60.57;95214.84;4991953;28;20380;-79
2023/04/23 01:48:05;;;;;;;16.38;7.18;;;;;;;10.89;60.91;95150.28;4982902;28;20072;-78
2023/04/23 01:50:31;;;;;;;16.55;8.10;;;;;;;10.43;62.80;95167.25;4982624;28;20572;-78
2023/04/23 01:52:56;;;;;;;23.48;7.28;;;;;;;10.37;62.40;95141.81;4991983;28;20044;-78
2023/04/23 01:55:22;;;;;;;16.52;7.97;;;;;;;11.03;61.77;95223.69;4992104;28;20030;-78
2023/04/23 01:57:48;;;;;;;20.50;8.93;;;;;;;10.61;62.39;95157.06;5009355;28;20079;-78
2023/04/23 02:00:15;;;;;;;26.40;9.50;;;;;;;11.01;62.66;95231.13;4991800;28;20143;-78
2023/04/23 02:02:43;;;;;;;18.33;8.50;;;;;;;10.80;62.10;95193.31;5009784;28;20030;-78
2023/04/23 02:05:15;;;;;;;13.63;9.27;;;;;;;11.11;62.20;95231.06;4991728;28;20041;-78
2023/04/23 02:07:42;;;;;;;20.77;11.00;;;;;;;10.43;62.03;95124.81;4991566;28;20041;-78
2023/04/23 02:10:08;;;;;;;16.40;9.40;;;;;;;10.48;62.27;95141.75;4991544;28;20416;-78
2023/04/23 02:12:35;;;;;;;16.25;8.60;;;;;;;10.87;62.27;95206.25;5009674;28;20041;-78
2023/04/23 02:15:00;;;;;;;19.77;8.90;;;;;;;10.69;61.91;95170.53;4991875;28;20034;-78
2023/04/23 02:17:28;;;;;;;17.00;8.68;;;;;;;10.94;62.57;95227.19;4991721;28;20037;-79
2023/04/23 02:19:54;;;;;;;14.10;8.57;;;;;;;10.40;62.62;95149.22;5009084;28;20033;-78
2023/04/23 02:22:21;;;;;;;16.08;9.02;;;;;;;10.65;62.23;95205.84;4991700;28;20121;-78
2023/04/23 02:24:47;;;;;;;16.85;9.00;;;;;;;10.79;62.50;95225.41;4991772;28;20500;-79
2023/04/23 02:27:12;;;;;;;22.35;8.77;;;;;;;10.67;62.65;95236.34;4988312;28;20044;-78
2023/04/23 02:29:39;;;;;;;19.15;8.85;;;;;;;9.98;62.14;95123.13;5001404;28;20834;-79
2023/04/23 02:32:04;;;;;;;16.50;8.60;;;;;;;10.50;62.61;95188.16;4995369;28;20096;-78
2023/04/23 02:34:30;;;;;;;17.55;9.07;;;;;;;10.52;62.07;95190.53;4995167;28;20033;-79
2023/04/23 02:36:56;;;;;;;20.15;8.65;;;;;;;10.20;62.33;95159.13;5013322;28;20117;-79
2023/04/23 02:39:21;;;;;;;15.38;8.60;;;;;;;10.31;63.02;95184.50;4994797;28;20563;-79
2023/04/23 02:41:47;;;;;;;21.88;9.55;;;;;;;10.48;62.83;95211.47;4994945;28;20030;-78
2023/04/23 02:44:12;;;;;;;22.58;9.23;;;;;;;10.35;62.41;95198.81;5011854;28;20088;-78
2023/04/23 02:46:37;;;;;;;19.67;8.50;;;;;;;10.63;63.20;95234.50;4993393;28;20038;-78
2023/04/23 02:49:03;;;;;;;18.42;9.25;;;;;;;10.35;62.25;95183.72;4993381;28;20045;-78
2023/04/23 02:51:30;;;;;;;18.63;9.48;;;;;;;10.15;62.65;95151.94;4975215;28;20036;-79
2023/04/23 02:53:56;;;;;;;16.30;9.27;;;;;;;10.63;62.84;95229.97;4993167;28;20022;-79
2023/04/23 02:56:22;;;;;;;24.17;8.77;;;;;;;10.56;62.14;95216.22;4975390;28;20473;-78
2023/04/23 02:58:47;;;;;;;18.17;8.95;;;;;;;10.65;62.69;95235.03;4975546;28;20109;-78
2023/04/23 03:01:13;;;;;;;18.17;9.50;;;;;;;10.39;62.84;95182.09;4974875;28;20034;-78
2023/04/23 03:03:39;;;;;;;15.25;8.48;;;;;;;10.62;61.90;95239.00;4975116;28;20569;-78
2023/04/23 03:06:06;;;;;;;19.73;8.27;;;;;;;10.42;62.70;95210.72;4993040;28;20069;-78
2023/04/23 03:08:32;;;;;;;21.40;9.07;;;;;;;10.55;62.90;95225.25;4987207;28;20120;-78
2023/04/23 03:10:57;;;;;;;18.17;8.57;;;;;;;10.13;62.89;95163.88;4980522;28;20166;-78
2023/04/23 03:13:24;;;;;;;19.92;8.80;;;;;;;10.29;62.45;95200.69;4975302;28;20394;-79
2023/04/23 03:15:50;;;;;;;17.60;9.00;;;;;;;10.61;62.23;95236.63;4974658;28;20421;-79
2023/04/23 03:18:16;;;;;;;18.83;9.30;;;;;;;10.57;62.94;95241.69;4974780;28;20030;-79
2023/04/23 03:20:42;;;;;;;18.15;8.98;;;;;;;10.14;62.78;95182.16;4974516;28;20041;-79
2023/04/23 03:23:08;;;;;;;27.75;9.93;;;;;;;10.19;62.78;95207.88;4976055;28;20520;-79
2023/04/23 03:25:33;;;;;;;15.73;8.90;;;;;;;10.50;62.11;95245.69;4994463;28;20416;-79
2023/04/23 03:27:59;;;;;;;16.08;9.45;;;;;;;10.13;62.63;95190.38;5012133;28;20061;-79
2023/04/23 03:30:25;;;;;;;17.85;8.48;;;;;;;10.38;62.56;95252.06;4994017;28;20026;-79
2023/04/23 03:32:53;;;;;;;17.73;8.18;;;;;;;10.38;62.70;95248.63;4993755;28;20512;-79
2023/04/23 03:35:19;;;;;;;18.63;8.85;;;;;;;10.11;62.34;95219.78;5011627;28;20049;-79
2023/04/23 03:37:44;;;;;;;26.65;9.73;;;;;;;9.89;63.08;95196.28;4994013;28;20161;-79
2023/04/23 03:40:10;;;;;;;17.35;9.10;;;;;;;10.27;63.17;95255.03;4993774;28;20034;-78
2023/04/23 03:42:35;;;;;;;24.23;10.00;;;;;;;10.23;63.13;95241.50;4993284;28;20489;-78
2023/04/23 03:45:01;;;;;;;17.95;9.85;;;;;;;10.21;63.40;95235.72;5010117;28;20496;-78
2023/04/23 03:47:26;;;;;;;20.48;8.98;;;;;;;10.32;63.17;95258.47;4994384;28;20034;-78
2023/04/23 03:49:52;;;;;;;22.92;9.95;;;;;;;10.29;63.90;95256.38;5011580;28;20029;-79
2023/04/23 03:52:18;;;;;;;23.58;9.18;;;;;;;10.11;63.48;95222.44;5010816;28;20428;-79
2023/04/23 03:54:43;;;;;;;20.88;9.05;;;;;;;9.59;63.36;95146.81;4993727;28;20113;-79
2023/04/23 03:57:11;;;;;;;19.58;9.15;;;;;;;10.21;63.77;95256.13;4993829;28;20037;-79
2023/04/23 03:59:36;;;;;;;18.92;10.23;;;;;;;10.07;63.39;95235.44;4993848;28;20036;-79
2023/04/23 04:02:03;;;;;;;17.33;9.45;;;;;;;10.15;63.58;95252.63;5011089;28;20116;-79
2023/04/23 04:04:29;;;;;;;22.45;9.68;;;;;;;10.25;63.93;95273.06;5011208;28;20022;-79
2023/04/23 04:06:55;;;;;;;17.58;9.32;;;;;;;10.03;63.35;95231.75;5011214;28;20057;-79
2023/04/23 04:09:20;;;;;;;18.58;9.07;;;;;;;10.25;63.77;95265.09;4993574;28;20064;-79
2023/04/23 04:11:46;;;;;;;25.45;9.35;;;;;;;10.24;63.82;95269.63;4992800;28;20049;-79
2023/04/23 04:14:12;;;;;;;17.77;9.07;;;;;;;10.30;63.38;95273.84;4992944;28;20026;-79
2023/04/23 04:16:37;;;;;;;16.10;9.48;;;;;;;9.88;63.77;95228.31;4993595;28;20524;-79
2023/04/23 04:19:03;;;;;;;18.63;9.27;;;;;;;9.87;63.86;95222.22;5011113;28;20065;-79
2023/04/23 04:21:28;;;;;;;14.55;9.38;;;;;;;10.15;63.58;95268.53;4993320;28;20122;-78
2023/04/23 04:23:55;;;;;;;21.98;9.38;;;;;;;10.24;63.49;95274.91;4992594;28;20124;-78
2023/04/23 04:26:20;;;;;;;13.93;9.40;;;;;;;10.27;63.24;95282.34;4994718;28;20030;-78
2023/04/23 04:28:45;;;;;;;14.25;9.45;;;;;;;10.14;63.39;95256.38;4991018;28;20091;-78
2023/04/23 04:31:14;;;;;;;19.30;10.30;;;;;;;10.27;62.67;95276.25;4982154;28;20461;-78
2023/04/23 04:33:40;;;;;;;22.10;10.13;;;;;;;9.96;63.65;95235.72;4999838;28;20030;-78
2023/04/23 04:36:08;;;;;;;22.73;10.98;;;;;;;10.27;63.67;95274.38;5008844;28;20033;-78
2023/04/23 04:38:36;;;;;;;21.20;12.02;;;;;;;10.00;63.27;95234.13;5010658;28;20460;-78
2023/04/23 04:41:02;;;;;;;18.70;10.48;;;;;;;10.25;63.87;95281.81;5010535;28;20056;-78
2023/04/23 04:43:28;;;;;;;17.00;9.93;;;;;;;10.23;63.47;95268.03;4992131;28;20137;-79
2023/04/23 04:45:53;;;;;;;16.60;9.02;;;;;;;10.32;63.54;95284.97;5010429;28;20037;-79
2023/04/23 04:48:19;;;;;;;15.80;8.77;;;;;;;10.29;63.15;95266.97;4992579;28;20041;-79
2023/04/23 04:50:45;;;;;;;13.45;8.25;;;;;;;10.21;63.33;95264.06;4992752;28;20092;-79
2023/04/23 04:53:11;;;;;;;17.10;8.82;;;;;;;10.39;62.58;95274.09;4992163;28;20548;-79
2023/04/23 04:55:36;;;;;;;15.98;8.93;;;;;;;10.48;62.80;95292.88;4992412;28;20125;-79
2023/04/23 04:58:02;;;;;;;18.27;8.73;;;;;;;10.53;62.84;95300.84;4992748;28;20040;-79
2023/04/23 05:00:28;;;;;;;14.48;8.70;;;;;;;10.53;61.88;95288.34;4992677;28;20464;-79
2023/04/23 05:02:56;;;;;;;13.32;8.38;;;;;;;10.55;62.02;95288.88;5010418;28;20030;-78
2023/04/23 05:05:23;;;;;;;15.23;8.60;;;;;;;10.61;62.27;95301.06;4991923;28;20117;-78
2023/04/23 05:07:49;;;;;;;16.13;9.65;;;;;;;10.68;62.26;95296.25;4992405;28;20431;-78
2023/04/23 05:10:14;;;;;;;21.75;10.07;;;;;;;9.97;62.17;95187.78;4992295;28;20026;-78
2023/04/23 05:12:41;;;;;;;22.48;10.18;;;;;;;10.74;62.28;95308.47;5005263;28;20110;-79
2023/04/23 05:15:15;;;;;;;22.20;10.18;;;;;;;10.60;62.01;95280.13;4988852;28;20038;-79
2023/04/23 05:17:41;;;;;;;21.23;9.93;;;;;;;10.75;61.96;95304.75;4990526;28;20038;-79
2023/04/23 05:20:11;;;;;;;18.33;10.18;;;;;;;10.44;61.96;95248.38;4991872;28;20547;-79
2023/04/23 05:22:38;;;;;;;19.55;12.00;;;;;;;10.83;61.93;95298.09;4992103;28;20030;-78
2023/04/23 05:25:04;;;;;;;21.02;11.38;;;;;;;10.89;61.82;95291.69;4991912;28;20037;-78
2023/04/23 05:27:30;;;;;;;23.23;13.63;;;;;;;10.47;62.44;95244.38;5010363;28;20515;-78
2023/04/23 05:29:55;;;;;;;21.02;12.43;;;;;;;10.76;62.09;95271.81;4991863;28;20041;-78
2023/04/23 05:32:21;;;;;;;25.02;13.63;;;;;;;10.78;62.61;95267.06;5009892;28;20034;-78
2023/04/23 05:34:46;;;;;;;21.25;14.20;;;;;;;10.87;62.35;95283.19;4991939;28;20081;-78
2023/04/23 05:37:12;;;;;;;33.10;19.15;;;;;;;10.80;62.23;95270.22;5009929;28;20045;-78
2023/04/23 05:39:38;;;;;;;39.70;24.67;;;;;;;11.15;62.15;95313.56;5008655;28;20026;-78
2023/04/23 05:42:03;;;;;;;44.17;23.98;;;;;;;10.93;61.78;95268.84;4988624;28;20026;-78
2023/04/23 05:44:29;;;;;;;23.80;15.65;;;;;;;10.80;62.20;95238.41;4990344;28;20778;-79
2023/04/23 05:46:54;;;;;;;23.50;13.20;;;;;;;11.04;62.51;95302.22;4986739;28;20053;-79
2023/04/23 05:49:20;;;;;;;22.55;11.38;;;;;;;11.17;62.10;95311.44;4972654;28;20035;-79
2023/04/23 05:51:45;;;;;;;18.17;9.07;;;;;;;11.01;61.87;95286.84;4990287;28;20041;-79
2023/04/23 05:54:11;;;;;;;13.52;7.30;;;;;;;11.17;62.46;95306.94;4972467;28;20092;-79
2023/04/23 05:56:36;;;;;;;15.02;6.95;;;;;;;11.20;62.11;95313.56;4989696;28;20046;-79
2023/04/23 05:59:01;;;;;;;13.75;6.75;;;;;;;11.21;61.77;95309.84;4990482;28;20038;-79
2023/04/23 06:01:27;;;;;;;12.98;6.97;;;;;;;11.33;61.29;95315.63;4990372;28;20039;-79
2023/04/23 06:03:53;;;;;;;13.70;7.25;;;;;;;11.21;61.83;95315.94;5005296;28;20034;-79
2023/04/23 06:06:18;;;;;;;13.68;7.75;;;;;;;11.32;61.63;95313.22;4995434;28;20038;-79
2023/04/23 06:08:44;;;;;;;11.40;7.25;;;;;;;11.09;61.54;95278.31;4995820;28;20022;-79
2023/04/23 06:11:10;;;;;;;13.95;8.27;;;;;;;11.09;62.27;95283.63;5013217;28;20124;-79
2023/04/23 06:13:39;;;;;;;13.75;7.90;;;;;;;10.88;62.95;95250.31;4995826;28;20461;-79
2023/04/23 06:16:06;;;;;;;19.02;8.07;;;;;;;11.24;63.49;95311.94;4995303;28;20437;-78
2023/04/23 06:18:32;;;;;;;17.98;9.40;;;;;;;10.93;63.02;95229.03;4995414;28;20095;-78
2023/04/23 06:21:00;;;;;;;15.77;9.02;;;;;;;11.42;63.26;95308.66;4995804;28;20026;-78
2023/04/23 06:23:25;;;;;;;14.32;8.57;;;;;;;11.52;62.75;95305.91;4995074;28;20445;-78
2023/04/23 06:25:51;;;;;;;15.48;8.90;;;;;;;11.44;62.83;95287.16;5013018;28;20026;-79
2023/04/23 06:28:16;;;;;;;16.70;8.65;;;;;;;11.23;63.03;95270.53;4995039;28;20045;-79
2023/04/23 06:30:42;;;;;;;18.42;8.55;;;;;;;11.33;62.18;95262.50;4995066;28;20029;-79
2023/04/23 06:33:08;;;;;;;16.67;9.15;;;;;;;11.52;62.50;95284.69;5013036;28;20034;-79
2023/04/23 06:35:33;;;;;;;14.07;8.90;;;;;;;11.57;62.73;95307.78;5012757;28;20572;-79
2023/04/23 06:37:58;;;;;;;13.70;8.10;;;;;;;11.51;62.01;95283.13;4994586;28;20041;-79
2023/04/23 06:40:24;;;;;;;17.63;9.48;;;;;;;11.60;62.23;95268.16;4998512;28;20038;-79
2023/04/23 06:42:50;;;;;;;15.15;8.82;;;;;;;11.73;62.21;95273.91;4990923;28;20412;-79
2023/04/23 06:45:15;;;;;;;16.52;8.52;;;;;;;11.80;62.62;95285.84;5012862;28;20451;-79
2023/04/23 06:47:41;;;;;;;16.35;9.27;;;;;;;11.87;62.75;95288.97;4994231;28;20050;-79
2023/04/23 06:50:07;;;;;;;14.52;8.50;;;;;;;11.94;63.09;95301.94;5012747;28;20261;-79
2023/04/23 06:52:33;;;;;;;16.35;8.57;;;;;;;11.89;62.52;95275.41;4975575;28;20049;-79
2023/04/23 06:54:58;;;;;;;15.13;8.70;;;;;;;12.07;62.19;95288.00;4993112;28;20038;-79
2023/04/23 06:57:24;;;;;;;16.73;8.77;;;;;;;12.22;62.29;95293.19;4992900;28;20607;-79
2023/04/23 06:59:50;;;;;;;22.38;8.63;;;;;;;12.17;62.48;95290.56;4979658;28;20113;-79
2023/04/23 07:02:15;;;;;;;15.75;8.73;;;;;;;12.20;62.42;95302.53;4995085;28;20044;-79
2023/04/23 07:04:41;;;;;;;11.48;8.48;;;;;;;12.32;62.30;95292.28;5012114;28;20041;-79
2023/04/23 07:07:06;;;;;;;13.00;8.68;;;;;;;11.96;63.09;95266.06;4994507;28;20034;-79
2023/04/23 07:09:32;;;;;;;12.82;8.05;;;;;;;12.18;62.70;95276.22;4994101;28;20132;-79
2023/04/23 07:11:57;;;;;;;18.95;9.40;;;;;;;12.06;62.39;95251.84;4994495;28;20057;-79
2023/04/23 07:14:22;;;;;;;24.35;8.90;;;;;;;12.32;62.52;95279.00;4994970;28;20501;-79
2023/04/23 07:16:48;;;;;;;16.60;10.30;;;;;;;12.43;61.91;95274.38;5011429;28;20038;-79
2023/04/23 07:19:14;;;;;;;15.60;9.95;;;;;;;12.37;61.63;95255.00;5011548;28;20100;-79
2023/04/23 07:21:39;;;;;;;17.65;9.57;;;;;;;12.53;61.71;95276.91;5012204;28;20029;-79
2023/04/23 07:24:08;;;;;;;20.20;9.70;;;;;;;12.28;62.39;95260.13;4994222;28;20034;-79
2023/04/23 07:26:35;;;;;;;12.30;8.90;;;;;;;12.54;62.01;95297.13;4994269;28;20029;-79
2023/04/23 07:29:01;;;;;;;14.13;9.05;;;;;;;12.57;62.15;95289.38;5010506;28;20069;-79
2023/04/23 07:31:27;;;;;;;10.55;7.32;;;;;;;12.54;61.62;95273.19;4994745;28;20042;-79
2023/04/23 07:33:54;;;;;;;14.43;8.38;;;;;;;12.43;62.11;95266.41;4978112;28;20030;-79
2023/04/23 07:36:20;;;;;;;16.52;8.88;;;;;;;12.32;62.44;95237.25;5011835;28;20034;-79
2023/04/23 07:38:45;;;;;;;16.40;9.68;;;;;;;12.67;61.81;95288.44;4994101;28;20138;-79
2023/04/23 07:41:11;;;;;;;16.58;9.02;;;;;;;12.80;61.53;95279.81;5011616;28;20515;-79
2023/04/23 07:43:37;;;;;;;15.13;8.88;;;;;;;12.60;61.29;95238.25;4994063;28;20708;-79
2023/04/23 07:46:03;;;;;;;18.27;8.45;;;;;;;12.79;60.44;95272.09;4988720;28;20042;-79
2023/04/23 07:48:29;;;;;;;16.48;9.35;;;;;;;11.98;60.64;95143.50;5003430;28;20041;-79
2023/04/23 07:50:55;;;;;;;21.45;9.52;;;;;;;13.02;60.51;95287.25;4993663;28;20525;-79
2023/04/23 07:53:21;;;;;;;18.90;9.00;;;;;;;12.70;60.37;95216.84;4993625;28;20064;-79
2023/04/23 07:55:47;;;;;;;15.38;9.07;;;;;;;12.97;59.96;95239.41;4978042;28;20042;-79
2023/04/23 07:58:12;;;;;;;14.85;9.50;;;;;;;13.19;59.81;95260.97;4974323;28;20038;-79
2023/04/23 08:00:38;;;;;;;14.35;8.60;;;;;;;13.30;59.28;95257.06;4989122;28;20046;-79
2023/04/23 08:03:03;;;;;;;17.20;9.68;;;;;;;13.56;59.63;95268.16;4991772;28;20042;-79
2023/04/23 08:05:28;;;;;;;17.52;9.48;;;;;;;13.45;60.10;95240.88;4977562;28;20031;-79
2023/04/23 08:07:54;;;;;;;19.27;10.75;;;;;;;13.80;59.87;95260.84;4973994;28;20023;-79
2023/04/23 08:10:19;;;;;;;15.88;8.15;;;;;;;13.87;57.50;95271.16;4973699;28;22357;-79
2023/04/23 08:12:45;;;;;;;12.73;8.73;;;;;;;13.63;57.28;95243.81;4973963;28;20022;-79
2023/04/23 08:15:11;;;;;;;14.55;9.20;;;;;;;14.00;58.26;95285.59;4981950;28;20045;-79
2023/04/23 08:17:36;;;;;;;24.73;8.85;;;;;;;13.20;57.47;95145.34;5011085;28;20060;-79
2023/04/23 08:20:05;;;;;;;13.70;8.15;;;;;;;13.51;56.24;95197.06;5011205;28;20042;-79
2023/04/23 08:22:31;;;;;;;19.15;9.63;;;;;;;13.90;57.41;95273.22;4982704;28;20501;-79
2023/04/23 08:24:56;;;;;;;20.15;9.20;;;;;;;13.47;57.26;95193.41;4985617;28;20045;-79
2023/04/23 08:27:22;;;;;;;15.88;9.50;;;;;;;14.11;57.53;95273.69;4992529;28;20457;-79
2023/04/23 08:29:47;;;;;;;15.98;8.98;;;;;;;14.10;57.96;95272.09;5010917;28;20052;-79
2023/04/23 08:32:12;;;;;;;14.23;8.70;;;;;;;13.57;56.82;95216.47;4992738;28;20026;-79
2023/04/23 08:34:38;;;;;;;13.13;8.90;;;;;;;14.19;56.39;95270.31;5010737;28;20030;-79
2023/04/23 08:37:03;;;;;;;14.88;9.43;;;;;;;14.21;55.31;95236.94;5010910;28;20412;-79
2023/04/23 08:39:31;;;;;;;15.75;8.55;;;;;;;14.47;56.88;95255.19;4992736;28;20030;-79
2023/04/23 08:42:03;;;;;;;19.00;9.15;;;;;;;14.09;57.11;95215.31;5010004;28;20044;-79
2023/04/23 08:44:30;;;;;;;14.75;9.57;;;;;;;14.31;56.96;95246.66;5010855;28;20474;-79
2023/04/23 08:46:57;;;;;;;23.45;10.35;;;;;;;14.13;56.70;95236.81;4992823;28;20022;-79
2023/04/23 08:49:23;;;;;;;14.93;9.55;;;;;;;14.36;58.69;95256.41;4993239;28;20030;-79
2023/04/23 08:51:51;;;;;;;17.05;9.43;;;;;;;14.55;57.90;95254.50;4992478;28;20598;-79
2023/04/23 08:54:27;;;;;;;15.68;7.45;;;;;;;14.42;55.86;95220.59;4992696;28;20060;-79
2023/04/23 08:56:57;;;;;;;19.98;9.75;;;;;;;14.75;55.49;95255.97;4992815;28;20108;-79
2023/04/23 08:59:28;;;;;;;17.02;9.07;;;;;;;14.76;54.63;95237.00;5010556;28;20413;-79
2023/04/23 09:01:55;;;;;;;17.73;8.80;;;;;;;14.64;54.47;95202.81;4992318;28;20018;-79
2023/04/23 09:04:21;;;;;;;15.23;8.13;;;;;;;14.88;54.59;95225.78;5009924;28;20037;-79
2023/04/23 09:06:46;;;;;;;11.90;7.90;;;;;;;15.05;53.24;95252.69;4992347;28;20034;-79
2023/04/23 09:09:14;;;;;;;14.95;8.43;;;;;;;15.11;53.58;95246.13;5010298;28;20382;-79
2023/04/23 09:11:40;;;;;;;15.30;9.23;;;;;;;15.04;53.14;95229.72;5009493;28;20409;-79
2023/04/23 09:14:07;;;;;;;12.85;8.35;;;;;;;14.66;54.32;95187.28;4992352;28;20018;-79
2023/04/23 09:16:32;;;;;;;14.50;8.60;;;;;;;14.77;55.74;95193.19;4992168;28;20034;-79
2023/04/23 09:18:58;;;;;;;13.43;8.30;;;;;;;15.10;53.70;95219.75;4987846;28;20053;-79
2023/04/23 09:21:23;;;;;;;15.35;8.32;;;;;;;15.20;52.02;95232.88;4990082;28;20034;-79
2023/04/23 09:23:51;;;;;;;14.48;8.40;;;;;;;15.03;51.20;95190.75;4990003;28;20038;-79
2023/04/23 09:26:21;;;;;;;16.15;8.35;;;;;;;15.49;52.08;95227.13;4981403;28;20648;-79
2023/04/23 09:28:50;;;;;;;19.77;9.30;;;;;;;15.42;54.05;95203.50;4992237;28;20419;-79
2023/04/23 09:31:20;;;;;;;10.68;7.82;;;;;;;15.73;51.87;95231.13;4992663;28;20041;-79
2023/04/23 09:33:53;;;;;;;12.10;7.68;;;;;;;15.59;49.10;95211.69;4977775;28;20031;-79
2023/04/23 09:36:22;;;;;;;14.27;7.78;;;;;;;15.65;51.99;95197.09;4972705;28;20664;-79
2023/04/23 09:38:49;;;;;;;14.50;7.70;;;;;;;15.88;51.15;95221.16;4972556;28;20420;-79
2023/04/23 09:41:25;;;;;;;8.40;6.30;;;;;;;15.52;48.35;95205.16;4976763;28;20390;-79
2023/04/23 09:43:55;;;;;;;12.88;7.13;;;;;;;15.06;49.54;95192.84;4976161;28;20072;-77
2023/04/23 09:46:40;;;;;;;18.02;7.32;;;;;;;15.38;49.90;95213.22;4981446;28;20029;-79
2023/04/23 09:49:07;;;;;;;21.27;7.53;;;;;;;15.35;49.41;95171.84;4992301;28;20037;-79
2023/04/23 09:51:42;;;;;;;14.15;7.03;;;;;;;16.15;49.81;95172.84;4985307;28;20031;-78
2023/04/23 09:54:15;;;;;;;10.25;6.90;;;;;;;17.05;46.58;95133.88;4975683;28;20058;-78
2023/04/23 09:56:42;;;;;;;13.02;7.30;;;;;;;18.28;43.31;95169.03;4993059;28;20034;-77
2023/04/23 09:59:28;;;;;;;12.30;6.95;;;;;;;19.93;41.96;95183.75;5009314;28;20076;-78
2023/04/23 10:01:54;;;;;;;11.80;5.88;;;;;;;20.69;37.67;95134.69;4995433;28;20172;-78
2023/04/23 10:04:21;;;;;;;10.40;5.70;;;;;;;21.72;35.82;95189.00;4995261;28;20042;-78
2023/04/23 10:07:05;;;;;;;10.27;5.80;;;;;;;22.65;33.99;95144.34;4995111;28;20029;-78
2023/04/23 10:09:30;;;;;;;10.32;4.75;;;;;;;22.88;32.52;95152.63;4994941;28;20038;-79
2023/04/23 10:11:58;;;;;;;9.90;5.97;;;;;;;23.89;33.10;95174.09;5004420;28;20060;-78
2023/04/23 10:14:25;;;;;;;11.57;5.55;;;;;;;24.18;30.99;95172.72;4991628;28;20034;-78
2023/04/23 10:16:56;;;;;;;12.50;5.22;;;;;;;24.55;29.29;95165.66;4994985;28;20061;-78
2023/04/23 10:19:23;;;;;;;10.98;5.10;;;;;;;24.83;29.51;95142.81;5012885;28;20096;-78
2023/04/23 10:22:06;;;;;;;9.52;4.97;;;;;;;25.63;30.04;95157.94;4995073;28;20512;-79
2023/04/23 10:24:36;;;;;;;9.23;5.30;;;;;;;25.80;28.52;95151.13;5012635;28;20068;-79
2023/04/23 10:27:04;;;;;;;11.52;5.13;;;;;;;26.08;27.26;95125.06;4994471;28;20061;-79
2023/04/23 10:29:31;;;;;;;13.15;4.40;;;;;;;26.52;26.21;95149.56;4977525;28;20092;-79
2023/04/23 10:31:59;;;;;;;10.93;4.40;;;;;;;26.40;26.17;95140.91;5012751;28;20051;-79
2023/04/23 10:34:28;;;;;;;10.23;4.85;;;;;;;26.02;25.92;95131.19;4989469;28;20037;-79
2023/04/23 10:36:58;;;;;;;10.15;4.40;;;;;;;26.06;25.00;95148.31;4983911;28;20501;-78
2023/04/23 10:39:30;;;;;;;6.78;4.35;;;;;;;25.89;24.59;95070.91;4995211;28;20034;-78
2023/04/23 10:41:58;;;;;;;8.55;4.05;;;;;;;25.97;23.95;95135.03;4983147;28;20041;-78
2023/04/23 10:44:31;;;;;;;8.23;3.83;;;;;;;26.03;23.92;95136.25;4988063;28;20036;-78
2023/04/23 10:46:59;;;;;;;10.35;4.03;;;;;;;25.84;24.19;95075.91;5012505;28;20026;-78
2023/04/23 10:49:28;;;;;;;9.80;4.22;;;;;;;25.99;24.81;95102.06;5012350;28;20037;-79
2023/04/23 10:52:13;;;;;;;8.38;3.90;;;;;;;26.38;26.25;95108.66;4993648;28;20026;-78
2023/04/23 10:54:46;;;;;;;7.55;4.00;;;;;;;26.33;25.82;95102.78;4994959;28;20484;-79
2023/04/23 10:57:11;;;;;;;10.40;4.50;;;;;;;26.35;25.66;95087.66;4994143;28;20034;-79
2023/04/23 10:59:51;;;;;;;11.68;4.30;;;;;;;26.51;23.57;95109.94;5010589;28;20036;-78
2023/04/23 11:02:17;;;;;;;10.40;4.35;;;;;;;26.34;22.88;95101.63;4988758;28;20560;-79
2023/04/23 11:04:58;;;;;;;6.22;4.18;;;;;;;25.55;23.95;95102.75;4992729;28;20172;-79
2023/04/23 11:07:32;;;;;;;10.13;4.07;;;;;;;25.74;24.62;95104.50;4974537;28;20038;-78
2023/04/23 11:10:11;;;;;;;9.57;4.28;;;;;;;25.86;24.67;95098.81;5007495;28;20042;-78
2023/04/23 11:12:38;;;;;;;6.68;4.07;;;;;;;25.58;24.56;95099.28;5012404;28;20136;-79
2023/04/23 11:15:12;;;;;;;7.22;4.80;;;;;;;25.83;25.28;95064.25;4992381;28;20049;-79
2023/04/23 11:17:38;;;;;;;12.57;4.60;;;;;;;26.24;24.72;95083.28;5012304;28;20041;-79
2023/04/23 11:20:14;;;;;;;7.53;4.43;;;;;;;26.11;23.57;95078.09;4994924;28;20044;-78
2023/04/23 11:22:45;;;;;;;14.98;4.35;;;;;;;26.56;23.66;95075.38;4995154;28;20042;-78
2023/04/23 11:25:12;;;;;;;8.77;3.83;;;;;;;26.65;23.80;95078.56;4994259;28;20041;-78